Time;durP1;ratioP1;P1;durP2;ratioP2;P2;SDS_P1;SDS_P2;PMS_P1;PMS_P2;Temp;Humidity;BMP_temperature;BMP_pressure;BME280_temperature;BME280_humidity;BME280_pressure;Samples;Min_cycle;Max_cycle;Signal;HPM_P1;HPM_P2
2023/12/15 00:02:22;;;;;;;13.27;9.07;;;;;;;3.57;100.00;102537.09;6194471;28;20229;-72
2023/12/15 00:05:43;;;;;;;9.17;7.20;;;;;;;3.55;100.00;102536.25;6159197;28;1112077;-72
2023/12/15 00:09:05;;;;;;;8.83;7.93;;;;;;;3.67;100.00;102530.53;6197825;28;20233;-73
2023/12/15 00:12:25;;;;;;;10.67;8.30;;;;;;;3.69;100.00;102534.03;6197831;28;20232;-73
2023/12/15 00:15:48;;;;;;;8.87;6.90;;;;;;;3.71;100.00;102540.19;6199851;28;20229;-72
2023/12/15 00:19:09;;;;;;;10.87;7.90;;;;;;;3.65;100.00;102541.25;6194977;28;20237;-73
2023/12/15 00:22:30;;;;;;;9.50;7.27;;;;;;;3.44;100.00;102547.31;6197351;28;20225;-73
2023/12/15 00:25:51;;;;;;;9.57;7.17;;;;;;;3.38;100.00;102552.81;6201833;28;20244;-73
2023/12/15 00:29:12;;;;;;;11.30;9.03;;;;;;;3.35;100.00;102557.38;6194268;28;20237;-73
2023/12/15 00:32:35;;;;;;;13.20;9.23;;;;;;;3.43;100.00;102555.31;6197152;28;20236;-73
2023/12/15 00:35:55;;;;;;;10.07;8.80;;;;;;;3.39;100.00;102564.34;6198766;28;20596;-74
2023/12/15 00:39:17;;;;;;;9.27;8.30;;;;;;;3.42;100.00;102561.59;6197339;28;20260;-73
2023/12/15 00:42:37;;;;;;;10.73;8.33;;;;;;;3.44;100.00;102573.09;6197169;28;20229;-73
2023/12/15 00:45:58;;;;;;;14.47;10.50;;;;;;;3.48;100.00;102562.28;6191984;28;20236;-73
2023/12/15 00:49:21;;;;;;;10.57;8.23;;;;;;;3.48;100.00;102561.41;6190662;28;20232;-73
2023/12/15 00:52:42;;;;;;;13.00;9.87;;;;;;;3.54;100.00;102569.19;6183208;28;20241;-73
2023/12/15 00:56:03;;;;;;;11.53;9.20;;;;;;;3.54;100.00;102559.41;6199857;28;20229;-73
2023/12/15 00:59:24;;;;;;;12.43;10.20;;;;;;;3.58;100.00;102574.38;6202571;28;20229;-74
2023/12/15 01:02:45;;;;;;;10.73;9.17;;;;;;;3.59;100.00;102570.78;6201245;28;20226;-73
2023/12/15 01:06:08;;;;;;;10.90;9.60;;;;;;;3.61;100.00;102562.75;6182983;28;21413;-74
2023/12/15 01:09:29;;;;;;;11.33;9.63;;;;;;;3.59;100.00;102569.94;6193371;28;20311;-73
2023/12/15 01:12:50;;;;;;;12.33;8.97;;;;;;;3.64;100.00;102582.19;6197340;28;20225;-74
2023/12/15 01:16:11;;;;;;;10.27;9.20;;;;;;;3.57;100.00;102575.28;6198265;28;20304;-73
2023/12/15 01:19:33;;;;;;;10.97;7.83;;;;;;;3.49;100.00;102573.78;6195508;28;20234;-73
2023/12/15 01:22:55;;;;;;;10.83;8.70;;;;;;;3.58;100.00;102584.16;6195242;28;22073;-73
2023/12/15 01:26:17;;;;;;;10.23;8.80;;;;;;;3.72;100.00;102593.47;6195804;28;20229;-73
2023/12/15 01:29:38;;;;;;;10.93;7.73;;;;;;;3.46;100.00;102587.22;6194274;28;20489;-73
2023/12/15 01:32:59;;;;;;;11.50;9.33;;;;;;;3.52;100.00;102592.38;6200619;28;20279;-74
2023/12/15 01:36:20;;;;;;;11.67;9.97;;;;;;;3.31;100.00;102595.69;6203085;28;20237;-74
2023/12/15 01:39:43;;;;;;;11.90;9.33;;;;;;;3.47;100.00;102600.50;6201520;28;20236;-74
2023/12/15 01:43:04;;;;;;;11.10;9.77;;;;;;;3.63;100.00;102595.56;6200688;28;20233;-74
2023/12/15 01:46:25;;;;;;;9.83;8.30;;;;;;;3.65;100.00;102597.22;6202914;28;20257;-74
2023/12/15 01:49:47;;;;;;;9.20;8.20;;;;;;;3.62;100.00;102596.47;6200916;28;21517;-74
2023/12/15 01:53:08;;;;;;;11.30;9.77;;;;;;;3.63;100.00;102604.41;6200600;28;20229;-74
2023/12/15 01:56:31;;;;;;;14.03;9.13;;;;;;;3.58;100.00;102600.16;6187509;28;20604;-74
2023/12/15 01:59:52;;;;;;;9.23;8.27;;;;;;;3.65;100.00;102599.06;6202204;28;20245;-74
2023/12/15 02:03:13;;;;;;;9.97;7.90;;;;;;;3.73;100.00;102597.00;6201073;28;20232;-74
2023/12/15 02:06:34;;;;;;;17.73;11.60;;;;;;;3.82;100.00;102592.22;6186105;28;20255;-73
2023/12/15 02:09:55;;;;;;;12.37;9.87;;;;;;;3.90;100.00;102592.00;6192403;28;20233;-73
2023/12/15 02:13:17;;;;;;;11.60;9.23;;;;;;;4.04;100.00;102595.94;6192838;28;20237;-73
2023/12/15 02:16:38;;;;;;;10.97;8.50;;;;;;;4.18;100.00;102598.09;6186202;28;20448;-74
2023/12/15 02:19:59;;;;;;;11.00;9.63;;;;;;;4.26;100.00;102603.16;6193508;28;20249;-73
2023/12/15 02:23:21;;;;;;;15.07;10.17;;;;;;;4.28;100.00;102591.50;6193090;28;20229;-73
2023/12/15 02:26:42;;;;;;;13.90;10.30;;;;;;;4.33;100.00;102600.25;6194650;28;20242;-74
2023/12/15 02:30:04;;;;;;;12.23;8.47;;;;;;;4.35;100.00;102609.06;6192591;28;20232;-73
2023/12/15 02:33:25;;;;;;;12.50;8.83;;;;;;;4.40;100.00;102617.78;6191748;28;20237;-74
2023/12/15 02:36:46;;;;;;;9.83;8.83;;;;;;;4.40;100.00;102607.09;6188671;28;20642;-73
2023/12/15 02:40:09;;;;;;;11.10;9.33;;;;;;;4.36;100.00;102601.94;6193183;28;20237;-73
2023/12/15 02:43:30;;;;;;;10.27;9.27;;;;;;;4.40;100.00;102614.25;6188403;28;20233;-74
2023/12/15 02:46:51;;;;;;;11.87;8.33;;;;;;;4.42;100.00;102604.38;6192485;28;20234;-73
2023/12/15 02:50:12;;;;;;;10.17;7.63;;;;;;;4.42;100.00;102607.91;6194783;28;20245;-73
2023/12/15 02:53:33;;;;;;;9.20;8.30;;;;;;;4.39;100.00;102607.16;6194250;28;20237;-74
2023/12/15 02:56:56;;;;;;;9.77;7.60;;;;;;;4.43;100.00;102609.66;6193742;28;20483;-73
2023/12/15 03:00:17;;;;;;;12.73;8.63;;;;;;;4.46;100.00;102596.22;6191223;28;20245;-73
2023/12/15 03:03:38;;;;;;;10.67;7.63;;;;;;;4.49;100.00;102598.75;6192407;28;20249;-73
2023/12/15 03:06:59;;;;;;;10.23;8.93;;;;;;;4.47;100.00;102602.41;6200254;28;20252;-73
2023/12/15 03:10:20;;;;;;;11.23;7.23;;;;;;;4.51;100.00;102612.94;6197885;28;20257;-73
2023/12/15 03:13:42;;;;;;;8.13;6.63;;;;;;;4.49;100.00;102612.13;6194585;28;20816;-73
2023/12/15 03:17:04;;;;;;;11.23;10.20;;;;;;;4.58;100.00;102614.47;6202013;28;20237;-72
2023/12/15 03:20:25;;;;;;;10.03;8.17;;;;;;;4.57;100.00;102610.03;6198485;28;22100;-73
2023/12/15 03:23:46;;;;;;;12.27;9.60;;;;;;;4.65;100.00;102607.94;6199515;28;20231;-72
2023/12/15 03:27:07;;;;;;;16.00;11.33;;;;;;;4.71;100.00;102612.22;6185450;28;20237;-73
2023/12/15 03:30:29;;;;;;;14.83;10.07;;;;;;;4.66;100.00;102615.06;6153321;28;20950;-72
2023/12/15 03:33:50;;;;;;;13.17;11.47;;;;;;;4.65;100.00;102615.13;6200272;28;20244;-74
2023/12/15 03:37:11;;;;;;;12.83;10.10;;;;;;;4.63;100.00;102603.63;6198470;28;20230;-72
2023/12/15 03:40:32;;;;;;;10.70;9.63;;;;;;;4.60;100.00;102615.28;6201877;28;20320;-73
2023/12/15 03:43:53;;;;;;;16.27;11.17;;;;;;;4.56;100.00;102616.31;6198220;28;20253;-73
2023/12/15 03:47:15;;;;;;;15.23;12.13;;;;;;;4.60;100.00;102615.28;6197778;28;21852;-73
2023/12/15 03:50:36;;;;;;;17.23;11.77;;;;;;;4.59;100.00;102610.00;6200567;28;20603;-73
2023/12/15 03:53:57;;;;;;;10.53;9.43;;;;;;;4.59;100.00;102620.69;6196202;28;20257;-74
2023/12/15 03:57:18;;;;;;;14.53;13.03;;;;;;;4.48;100.00;102601.50;6199876;28;20662;-73
2023/12/15 04:00:39;;;;;;;18.37;12.60;;;;;;;4.53;100.00;102615.53;6198792;28;20241;-73
2023/12/15 04:04:01;;;;;;;13.47;12.00;;;;;;;4.56;100.00;102610.97;6198069;28;20240;-73
2023/12/15 04:07:22;;;;;;;15.70;10.80;;;;;;;4.56;100.00;102612.78;6200441;28;20685;-73
2023/12/15 04:10:43;;;;;;;15.33;12.57;;;;;;;4.54;100.00;102612.84;6197957;28;23448;-73
2023/12/15 04:14:04;;;;;;;14.07;11.27;;;;;;;4.52;100.00;102601.34;6199827;28;20232;-73
2023/12/15 04:17:25;;;;;;;16.37;13.27;;;;;;;4.57;100.00;102599.34;6183906;28;20230;-73
2023/12/15 04:20:47;;;;;;;14.10;11.60;;;;;;;4.59;100.00;102610.00;6201668;28;20319;-73
2023/12/15 04:24:08;;;;;;;16.97;10.77;;;;;;;4.57;100.00;102618.03;6201426;28;20319;-73
2023/12/15 04:27:30;;;;;;;13.63;11.73;;;;;;;4.56;100.00;102612.78;6192178;28;20237;-71
2023/12/15 04:30:52;;;;;;;12.90;11.30;;;;;;;4.57;100.00;102627.84;6197022;28;20241;-73
2023/12/15 04:34:13;;;;;;;11.80;10.60;;;;;;;4.57;100.00;102631.41;6200141;28;20836;-73
2023/12/15 04:37:35;;;;;;;16.33;13.83;;;;;;;4.59;100.00;102640.22;6200328;28;20237;-72
2023/12/15 04:40:56;;;;;;;12.60;11.27;;;;;;;4.64;100.00;102642.75;6192786;28;20707;-73
2023/12/15 04:44:16;;;;;;;13.30;11.83;;;;;;;4.64;100.00;102640.94;6199409;28;20938;-72
2023/12/15 04:47:38;;;;;;;15.33;11.60;;;;;;;4.66;100.00;102640.88;6198969;28;20667;-73
2023/12/15 04:50:59;;;;;;;16.63;12.63;;;;;;;4.66;100.00;102657.78;6197974;28;20235;-73
2023/12/15 04:54:21;;;;;;;15.13;10.87;;;;;;;4.65;100.00;102660.53;6196923;28;20252;-73
2023/12/15 04:57:42;;;;;;;12.97;11.40;;;;;;;4.62;100.00;102669.50;6198515;28;20379;-73
2023/12/15 05:01:03;;;;;;;16.27;13.90;;;;;;;4.62;100.00;102673.97;6197655;28;20328;-73
2023/12/15 05:04:24;;;;;;;17.30;13.10;;;;;;;4.60;100.00;102675.81;6200272;28;20273;-74
2023/12/15 05:07:44;;;;;;;14.27;10.57;;;;;;;4.55;100.00;102681.31;6202135;28;20237;-73
2023/12/15 05:11:07;;;;;;;14.40;12.90;;;;;;;4.50;100.00;102680.63;6201611;28;20232;-73
2023/12/15 05:14:28;;;;;;;15.13;12.13;;;;;;;4.52;100.00;102692.13;6202352;28;20229;-73
2023/12/15 05:17:49;;;;;;;17.57;13.37;;;;;;;4.60;100.00;102697.19;6203150;28;20320;-73
2023/12/15 05:21:10;;;;;;;16.37;12.90;;;;;;;4.63;100.00;102699.78;6199857;28;20237;-73
2023/12/15 05:24:34;;;;;;;12.60;9.20;;;;;;;4.55;100.00;102704.47;6192298;28;20740;-74
2023/12/15 05:27:56;;;;;;;14.33;12.47;;;;;;;4.56;100.00;102709.78;6187693;28;20351;-73
2023/12/15 05:31:17;;;;;;;15.27;12.23;;;;;;;4.54;100.00;102703.63;6201842;28;20257;-73
2023/12/15 05:34:38;;;;;;;11.90;10.73;;;;;;;4.59;100.00;102724.84;6200010;28;20257;-73
2023/12/15 05:37:59;;;;;;;14.57;11.03;;;;;;;4.55;100.00;102729.38;6199733;28;20245;-74
2023/12/15 05:41:22;;;;;;;14.03;10.80;;;;;;;4.57;100.00;102727.53;6201748;28;20784;-73
2023/12/15 05:44:44;;;;;;;10.33;8.67;;;;;;;4.61;100.00;102728.31;6200127;28;20229;-73
2023/12/15 05:48:06;;;;;;;15.17;11.90;;;;;;;4.53;100.00;102725.91;6198009;28;20599;-73
2023/12/15 05:51:27;;;;;;;16.73;14.63;;;;;;;4.54;100.00;102729.44;6202492;28;20234;-74
2023/12/15 05:54:48;;;;;;;13.63;11.40;;;;;;;4.58;100.00;102729.31;6203743;28;20674;-73
2023/12/15 05:58:08;;;;;;;15.67;10.67;;;;;;;4.59;100.00;102730.19;6202454;28;20264;-73
2023/12/15 06:01:31;;;;;;;10.30;9.20;;;;;;;4.64;100.00;102725.53;6194900;28;20237;-73
2023/12/15 06:04:52;;;;;;;19.03;12.43;;;;;;;4.63;100.00;102734.50;6201928;28;20237;-73
2023/12/15 06:08:13;;;;;;;12.20;10.47;;;;;;;4.63;100.00;102723.81;6197537;28;20233;-73
2023/12/15 06:11:40;;;;;;;15.87;11.90;;;;;;;4.56;100.00;102719.59;6197910;28;20229;-74
2023/12/15 06:15:01;;;;;;;16.53;13.30;;;;;;;4.62;100.00;102724.72;6198787;28;20229;-74
2023/12/15 06:18:23;;;;;;;15.23;12.23;;;;;;;4.59;100.00;102732.84;6200301;28;20237;-74
2023/12/15 06:21:44;;;;;;;15.87;12.63;;;;;;;4.60;100.00;102724.78;6201243;28;20233;-74
2023/12/15 06:25:05;;;;;;;20.43;13.47;;;;;;;4.66;100.00;102735.25;6200674;28;20261;-74
2023/12/15 06:28:26;;;;;;;21.53;15.70;;;;;;;4.71;100.00;102733.25;6197748;28;20622;-73
2023/12/15 06:31:47;;;;;;;18.80;13.93;;;;;;;4.75;100.00;102753.63;6202030;28;21318;-73
2023/12/15 06:35:10;;;;;;;20.00;16.53;;;;;;;4.69;100.00;102752.97;6200191;28;20276;-73
2023/12/15 06:38:31;;;;;;;18.47;13.97;;;;;;;4.82;100.00;102759.59;6200984;28;20237;-74
2023/12/15 06:41:52;;;;;;;17.90;14.20;;;;;;;4.74;100.00;102754.53;6195875;28;20233;-74
2023/12/15 06:45:13;;;;;;;17.10;14.20;;;;;;;4.76;100.00;102746.47;6180906;28;20233;-74
2023/12/15 06:48:34;;;;;;;22.80;15.33;;;;;;;4.75;100.00;102750.97;6192186;28;20233;-74
2023/12/15 06:51:56;;;;;;;25.37;17.30;;;;;;;4.80;100.00;102748.97;6193827;28;20312;-74
2023/12/15 06:55:17;;;;;;;21.70;15.90;;;;;;;4.76;100.00;102759.81;6193990;28;20233;-73
2023/12/15 06:58:38;;;;;;;21.90;16.97;;;;;;;4.80;100.00;102751.66;6185975;28;20237;-72
2023/12/15 07:01:59;;;;;;;20.90;16.70;;;;;;;4.85;100.00;102760.41;6190962;28;20281;-72
2023/12/15 07:05:20;;;;;;;22.77;18.27;;;;;;;4.88;100.00;102752.25;6185439;28;20564;-72
2023/12/15 07:08:43;;;;;;;22.10;15.53;;;;;;;4.86;100.00;102763.91;6193164;28;20570;-73
2023/12/15 07:12:04;;;;;;;21.60;17.43;;;;;;;4.90;100.00;102765.59;6194857;28;20304;-72
2023/12/15 07:15:27;;;;;;;19.87;14.70;;;;;;;4.91;100.00;102759.31;6201725;28;20257;-72
2023/12/15 07:18:48;;;;;;;25.00;22.37;;;;;;;4.98;100.00;102767.97;6200138;28;20229;-72
2023/12/15 07:22:09;;;;;;;21.93;17.20;;;;;;;4.98;100.00;102768.84;6199421;28;20645;-73
2023/12/15 07:25:32;;;;;;;23.13;20.13;;;;;;;4.94;100.00;102777.03;6201194;28;20554;-72
2023/12/15 07:28:53;;;;;;;32.53;20.20;;;;;;;5.04;100.00;102783.78;6195768;28;20256;-72
2023/12/15 07:32:13;;;;;;;28.30;18.80;;;;;;;4.99;100.00;102789.28;6202290;28;20315;-72
2023/12/15 07:35:34;;;;;;;23.63;20.33;;;;;;;5.09;100.00;102792.53;6201925;28;20245;-72
2023/12/15 07:38:55;;;;;;;24.53;18.03;;;;;;;5.10;100.00;102803.16;6199674;28;20362;-72
2023/12/15 07:42:18;;;;;;;29.07;19.50;;;;;;;5.07;100.00;102802.41;6198592;28;20233;-72
2023/12/15 07:45:39;;;;;;;23.17;19.13;;;;;;;5.15;100.00;102816.38;6197059;28;20328;-73
2023/12/15 07:49:02;;;;;;;32.40;22.47;;;;;;;5.09;100.00;102813.91;6173923;28;20599;-73
2023/12/15 07:52:23;;;;;;;25.40;18.40;;;;;;;5.17;100.00;102820.75;6188968;28;20884;-73
2023/12/15 07:55:44;;;;;;;34.63;20.60;;;;;;;5.16;100.00;102832.34;6201141;28;20650;-73
2023/12/15 07:59:07;;;;;;;29.20;19.43;;;;;;;5.12;100.00;102833.38;6200882;28;20241;-73
2023/12/15 08:02:28;;;;;;;35.07;21.47;;;;;;;5.19;100.00;102837.59;6197450;28;20295;-73
2023/12/15 08:05:49;;;;;;;34.83;23.40;;;;;;;5.31;100.00;102842.50;6197425;28;20229;-75
2023/12/15 08:09:10;;;;;;;34.10;23.43;;;;;;;5.29;100.00;102835.47;6198403;28;20233;-74
2023/12/15 08:12:30;;;;;;;26.93;20.60;;;;;;;5.27;100.00;102834.66;6178507;28;20229;-74
2023/12/15 08:15:52;;;;;;;33.47;22.33;;;;;;;5.31;100.00;102841.63;6196357;28;20784;-73
2023/12/15 08:19:13;;;;;;;37.67;23.53;;;;;;;5.28;100.00;102836.38;6202608;28;20230;-74
2023/12/15 08:22:34;;;;;;;29.23;23.80;;;;;;;5.35;100.00;102828.09;6201747;28;20236;-74
2023/12/15 08:25:55;;;;;;;27.10;20.13;;;;;;;5.41;100.00;102835.00;6201340;28;22038;-73
2023/12/15 08:29:16;;;;;;;32.57;22.00;;;;;;;5.43;100.00;102844.75;6199288;28;20229;-76
2023/12/15 08:32:39;;;;;;;25.03;18.80;;;;;;;5.51;100.00;102839.09;6198098;28;21145;-74
2023/12/15 08:35:59;;;;;;;23.03;18.27;;;;;;;5.57;100.00;102860.28;6187068;28;20237;-73
2023/12/15 08:39:20;;;;;;;26.93;20.40;;;;;;;5.57;100.00;102866.50;6184206;28;20221;-73
2023/12/15 08:42:41;;;;;;;24.50;18.93;;;;;;;5.54;100.00;102871.97;6201036;28;20237;-73
2023/12/15 08:46:02;;;;;;;24.43;18.47;;;;;;;5.55;100.00;102871.03;6201933;28;20316;-73
2023/12/15 08:49:25;;;;;;;27.73;18.80;;;;;;;5.55;100.00;102887.09;6201958;28;20509;-72
2023/12/15 08:52:46;;;;;;;21.80;18.33;;;;;;;5.65;100.00;102883.16;6199728;28;20249;-73
2023/12/15 08:56:07;;;;;;;24.60;17.73;;;;;;;5.63;100.00;102890.34;6187575;28;20655;-74
2023/12/15 08:59:28;;;;;;;22.27;16.50;;;;;;;5.69;100.00;102897.31;6183543;28;20794;-74
2023/12/15 09:02:52;;;;;;;33.23;19.83;;;;;;;5.73;100.00;102898.06;6203944;28;20256;-74
2023/12/15 09:06:14;;;;;;;25.13;16.27;;;;;;;5.79;100.00;102900.50;6193586;28;20611;-73
2023/12/15 09:09:36;;;;;;;26.47;16.97;;;;;;;5.82;100.00;102909.28;6195645;28;20239;-74
2023/12/15 09:12:57;;;;;;;22.83;16.97;;;;;;;5.83;100.00;102926.22;6196847;28;20229;-73
2023/12/15 09:16:18;;;;;;;19.03;15.83;;;;;;;5.88;100.00;102930.53;6199941;28;20237;-74
2023/12/15 09:19:40;;;;;;;23.07;16.13;;;;;;;5.90;100.00;102933.16;6202677;28;20233;-73
2023/12/15 09:23:06;;;;;;;18.43;15.30;;;;;;;5.90;100.00;102941.19;6190016;28;20245;-75
2023/12/15 09:26:27;;;;;;;19.83;12.60;;;;;;;6.00;100.00;102937.22;6186149;28;20265;-74
2023/12/15 09:29:48;;;;;;;19.50;14.60;;;;;;;5.98;100.00;102939.97;6193058;28;20264;-75
2023/12/15 09:33:09;;;;;;;26.73;16.90;;;;;;;5.97;100.00;102929.31;6180644;28;20233;-73
2023/12/15 09:36:30;;;;;;;28.00;18.27;;;;;;;6.03;100.00;102937.13;6201142;28;20236;-74
2023/12/15 09:39:52;;;;;;;25.83;16.83;;;;;;;6.07;100.00;102950.31;6200779;28;20619;-74
2023/12/15 09:43:13;;;;;;;25.37;16.60;;;;;;;6.08;100.00;102965.47;6193436;28;20241;-75
2023/12/15 09:46:36;;;;;;;31.93;17.90;;;;;;;6.17;100.00;102978.53;6197666;28;20230;-75
2023/12/15 09:50:03;;;;;;;23.87;17.23;;;;;;;6.34;100.00;102969.88;6198530;28;20229;-75
2023/12/15 09:53:25;;;;;;;22.90;18.73;;;;;;;6.39;100.00;102983.94;6201161;28;20260;-75
2023/12/15 09:56:47;;;;;;;30.10;18.43;;;;;;;6.36;100.00;102982.25;6198807;28;20265;-75
2023/12/15 10:00:09;;;;;;;23.23;16.60;;;;;;;6.37;100.00;102984.00;6208508;28;20237;-75
2023/12/15 10:03:35;;;;;;;23.13;15.73;;;;;;;6.48;100.00;102994.31;6202395;28;20233;-75
2023/12/15 10:06:56;;;;;;;33.47;18.17;;;;;;;6.60;100.00;102996.53;6200914;28;20257;-73
2023/12/15 10:10:18;;;;;;;26.33;17.07;;;;;;;6.81;100.00;102995.69;6203814;28;20258;-73
2023/12/15 10:13:41;;;;;;;25.33;19.83;;;;;;;6.66;100.00;102988.25;6196149;28;20290;-74
2023/12/15 10:17:02;;;;;;;22.13;17.73;;;;;;;6.61;100.00;102990.25;6203645;28;20233;-74
2023/12/15 10:20:24;;;;;;;29.67;17.73;;;;;;;6.55;100.00;102981.56;6204391;28;20225;-73
2023/12/15 10:23:45;;;;;;;34.23;19.77;;;;;;;6.51;100.00;102993.34;6199524;28;20249;-73
2023/12/15 10:27:08;;;;;;;30.33;15.57;;;;;;;6.63;100.00;102993.75;6205059;28;21021;-74
2023/12/15 10:30:30;;;;;;;29.03;18.10;;;;;;;6.66;100.00;102995.41;6207005;28;20334;-73
2023/12/15 10:33:51;;;;;;;32.87;18.93;;;;;;;6.74;100.00;103004.91;6197306;28;20221;-73
2023/12/15 10:37:12;;;;;;;23.17;16.03;;;;;;;6.89;100.00;103009.66;6205929;28;20229;-73
2023/12/15 10:40:33;;;;;;;23.97;17.37;;;;;;;6.81;100.00;103006.41;6200514;28;20233;-74
2023/12/15 10:43:54;;;;;;;30.57;18.20;;;;;;;6.92;100.00;103008.69;6201320;28;21572;-74
2023/12/15 10:47:16;;;;;;;25.20;17.03;;;;;;;6.93;100.00;103013.09;6204622;28;20237;-74
2023/12/15 10:50:43;;;;;;;31.17;18.43;;;;;;;6.96;100.00;103008.50;6202541;28;20234;-74
2023/12/15 10:54:05;;;;;;;18.97;15.47;;;;;;;7.01;100.00;103011.84;6201909;28;20233;-74
2023/12/15 10:57:26;;;;;;;27.97;17.17;;;;;;;7.03;100.00;103004.63;6205743;28;20229;-74
2023/12/15 11:00:47;;;;;;;24.93;15.67;;;;;;;7.23;100.00;103010.09;6199102;28;20240;-74
2023/12/15 11:04:21;;;;;;;25.13;16.33;;;;;;;7.19;100.00;103004.91;6183417;28;20312;-74
2023/12/15 11:07:42;;;;;;;28.93;14.83;;;;;;;7.22;100.00;103002.06;6199337;28;20225;-74
2023/12/15 11:11:04;;;;;;;25.07;15.40;;;;;;;7.24;100.00;103008.25;6193095;28;20328;-73
2023/12/15 11:14:29;;;;;;;20.87;16.80;;;;;;;7.26;100.00;103007.25;6204335;28;20229;-73
2023/12/15 11:17:56;;;;;;;25.77;13.87;;;;;;;7.26;100.00;103001.00;6206777;28;20228;-73
2023/12/15 11:21:20;;;;;;;22.13;12.87;;;;;;;7.30;100.00;103001.78;6202781;28;20234;-73
2023/12/15 11:24:41;;;;;;;20.93;13.97;;;;;;;7.42;100.00;103006.63;6193509;28;20237;-74
2023/12/15 11:28:07;;;;;;;27.00;15.70;;;;;;;7.45;100.00;103014.56;6199335;28;20233;-73
2023/12/15 11:31:29;;;;;;;22.23;13.33;;;;;;;7.55;100.00;103024.81;6203187;28;20233;-74
2023/12/15 11:34:50;;;;;;;26.23;16.63;;;;;;;7.68;100.00;103022.50;6195613;28;20673;-73
2023/12/15 11:38:12;;;;;;;17.77;12.00;;;;;;;7.69;100.00;103016.22;6194694;28;20228;-74
2023/12/15 11:41:33;;;;;;;21.50;13.77;;;;;;;7.61;100.00;103024.59;6199990;28;20257;-76
2023/12/15 11:44:54;;;;;;;17.33;12.00;;;;;;;7.59;100.00;103026.47;6196283;28;20241;-77
2023/12/15 11:48:14;;;;;;;23.97;13.77;;;;;;;7.59;100.00;103028.28;6192758;28;20229;-75
2023/12/15 11:51:35;;;;;;;34.93;15.57;;;;;;;7.55;100.00;103024.81;6185365;28;20233;-75
2023/12/15 11:54:58;;;;;;;21.20;13.83;;;;;;;7.64;100.00;103015.50;6196793;28;21977;-75
2023/12/15 11:58:20;;;;;;;32.07;13.63;;;;;;;7.64;100.00;103020.88;6190452;28;20225;-75
2023/12/15 12:01:41;;;;;;;17.87;12.33;;;;;;;7.72;100.00;103026.81;6180893;28;20240;-74
2023/12/15 12:05:02;;;;;;;16.97;11.90;;;;;;;7.67;100.00;103034.19;6194346;28;20241;-74
2023/12/15 12:08:23;;;;;;;16.33;11.23;;;;;;;7.71;100.00;103034.00;6190664;28;20233;-75
2023/12/15 12:11:46;;;;;;;21.20;11.67;;;;;;;7.80;100.00;103033.59;6189779;28;20359;-75
2023/12/15 12:15:09;;;;;;;16.47;11.30;;;;;;;7.72;100.00;103038.41;6194992;28;20233;-75
2023/12/15 12:18:32;;;;;;;17.17;11.20;;;;;;;7.75;100.00;103037.41;6191719;28;20233;-76
2023/12/15 12:21:54;;;;;;;21.50;12.27;;;;;;;7.75;100.00;103043.66;6197994;28;20229;-75
2023/12/15 12:25:16;;;;;;;22.33;11.63;;;;;;;7.86;100.00;103044.06;6192794;28;21333;-74
2023/12/15 12:28:44;;;;;;;22.00;10.33;;;;;;;7.80;100.00;103047.00;6180829;28;20529;-74
2023/12/15 12:32:06;;;;;;;16.10;10.37;;;;;;;7.88;100.00;103047.59;6199112;28;20248;-74
2023/12/15 12:35:27;;;;;;;24.33;12.17;;;;;;;7.82;100.00;103055.88;6186942;28;20252;-74
2023/12/15 12:38:49;;;;;;;17.17;10.17;;;;;;;7.89;100.00;103060.06;6194603;28;20237;-74
2023/12/15 12:42:09;;;;;;;15.90;10.73;;;;;;;7.89;100.00;103067.25;6196438;28;20241;-75
2023/12/15 12:45:32;;;;;;;18.93;9.90;;;;;;;7.92;100.00;103064.44;6182858;28;20729;-74
2023/12/15 12:48:53;;;;;;;15.10;9.40;;;;;;;7.93;100.00;103068.84;6170465;28;20228;-69
2023/12/15 12:52:14;;;;;;;13.57;9.60;;;;;;;7.85;100.00;103074.56;6186644;28;20280;-69
2023/12/15 12:55:35;;;;;;;17.10;10.33;;;;;;;7.83;100.00;103084.50;6188750;28;20277;-70
2023/12/15 12:58:56;;;;;;;18.57;10.50;;;;;;;7.84;100.00;103080.84;6185885;28;20498;-72
2023/12/15 13:02:18;;;;;;;23.53;11.67;;;;;;;7.86;100.00;103075.44;6193446;28;20265;-72
2023/12/15 13:05:39;;;;;;;14.30;10.40;;;;;;;7.88;100.00;103077.13;6192905;28;20249;-71
2023/12/15 13:09:00;;;;;;;15.83;8.40;;;;;;;7.88;100.00;103087.00;6186805;28;20245;-72
2023/12/15 13:12:21;;;;;;;17.57;10.00;;;;;;;7.91;100.00;103085.03;6188009;28;20558;-72
2023/12/15 13:15:42;;;;;;;13.93;9.87;;;;;;;7.91;100.00;103086.84;6198380;28;20237;-72
2023/12/15 13:19:04;;;;;;;16.67;9.20;;;;;;;7.89;100.00;103092.28;6199153;28;20237;-71
2023/12/15 13:22:27;;;;;;;19.60;10.20;;;;;;;7.85;100.00;103079.94;6190959;28;20360;-70
2023/12/15 13:25:48;;;;;;;28.87;11.70;;;;;;;7.87;100.00;103091.47;6195045;28;20233;-72
2023/12/15 13:29:09;;;;;;;26.90;11.30;;;;;;;7.89;100.00;103094.09;6198563;28;20233;-72
2023/12/15 13:32:30;;;;;;;18.50;10.87;;;;;;;7.88;100.00;103092.34;6185200;28;20249;-72
2023/12/15 13:35:52;;;;;;;13.57;10.17;;;;;;;7.86;100.00;103092.41;6194215;28;20233;-72
2023/12/15 13:39:15;;;;;;;12.80;7.80;;;;;;;7.87;100.00;103091.47;6193653;28;20792;-72
2023/12/15 13:42:36;;;;;;;17.57;10.43;;;;;;;7.87;100.00;103090.59;6170716;28;20513;-71
2023/12/15 13:45:57;;;;;;;13.10;9.40;;;;;;;7.87;100.00;103090.59;6185578;28;21107;-72
2023/12/15 13:49:18;;;;;;;18.37;9.10;;;;;;;7.87;100.00;103090.59;6194483;28;20611;-71
2023/12/15 13:52:41;;;;;;;19.77;9.63;;;;;;;7.88;100.00;103103.09;6184959;28;20236;-72
2023/12/15 13:56:02;;;;;;;16.60;9.37;;;;;;;7.89;100.00;103107.50;6192791;28;20229;-71
2023/12/15 13:59:23;;;;;;;11.77;7.60;;;;;;;7.98;100.00;103102.66;6193019;28;20282;-71
2023/12/15 14:02:44;;;;;;;18.67;9.90;;;;;;;7.96;100.00;103098.28;6196784;28;20233;-70
2023/12/15 14:06:06;;;;;;;17.90;7.00;;;;;;;7.97;100.00;103106.25;6191504;28;20237;-72
2023/12/15 14:09:28;;;;;;;18.33;9.63;;;;;;;7.95;100.00;103102.75;6188284;28;20395;-72
2023/12/15 14:12:50;;;;;;;17.20;9.30;;;;;;;7.94;100.00;103097.47;6190730;28;20229;-72
2023/12/15 14:16:11;;;;;;;13.53;8.23;;;;;;;7.92;100.00;103100.22;6187512;28;20225;-72
2023/12/15 14:19:32;;;;;;;17.60;10.03;;;;;;;7.90;100.00;103104.78;6198206;28;20224;-72
2023/12/15 14:22:54;;;;;;;15.10;9.37;;;;;;;7.91;100.00;103095.78;6197924;28;20229;-71
2023/12/15 14:26:16;;;;;;;12.77;7.07;;;;;;;7.90;100.00;103117.34;6196662;28;20226;-72
2023/12/15 14:29:37;;;;;;;11.93;7.77;;;;;;;7.90;100.00;103126.28;6192062;28;20229;-72
2023/12/15 14:32:58;;;;;;;13.67;7.67;;;;;;;7.91;100.00;103129.81;6190525;28;20903;-71
2023/12/15 14:36:19;;;;;;;13.60;8.07;;;;;;;7.92;100.00;103131.56;6190944;28;20237;-72
2023/12/15 14:39:40;;;;;;;15.83;7.83;;;;;;;7.97;100.00;103132.22;6193117;28;20229;-71
2023/12/15 14:43:02;;;;;;;14.03;7.70;;;;;;;7.92;100.00;103123.50;6188598;28;20233;-71
2023/12/15 14:46:23;;;;;;;17.53;7.43;;;;;;;7.90;100.00;103128.97;6185836;28;20599;-71
2023/12/15 14:49:44;;;;;;;10.07;6.37;;;;;;;7.90;100.00;103131.66;6184600;28;20245;-71
2023/12/15 14:53:05;;;;;;;12.43;9.37;;;;;;;7.91;100.00;103138.75;6183024;28;20237;-71
2023/12/15 14:56:26;;;;;;;8.10;6.30;;;;;;;8.33;100.00;103136.09;6187495;28;22506;-71
2023/12/15 14:59:49;;;;;;;15.20;8.53;;;;;;;8.38;100.00;103141.28;6191581;28;20262;-71
2023/12/15 15:03:10;;;;;;;10.67;7.23;;;;;;;8.77;100.00;103137.69;6191761;28;21828;-71
2023/12/15 15:06:31;;;;;;;13.20;7.97;;;;;;;8.83;100.00;103145.47;6190849;28;20245;-75
2023/12/15 15:09:52;;;;;;;11.33;6.83;;;;;;;8.85;100.00;103142.72;6188124;28;20233;-74
2023/12/15 15:13:13;;;;;;;14.70;6.87;;;;;;;8.66;100.00;103131.03;6185388;28;20796;-72
2023/12/15 15:16:36;;;;;;;12.80;7.17;;;;;;;8.39;100.00;103143.88;6199126;28;20233;-72
2023/12/15 15:19:57;;;;;;;12.83;7.63;;;;;;;8.53;100.00;103145.97;6197571;28;20233;-76